createdAt,value
2018-09-04T00:00:57.460Z,12.07
2018-09-04T00:03:25.957Z,14.40
2018-09-04T00:05:54.459Z,10.17
2018-09-04T00:08:23.017Z,9.83
2018-09-04T00:10:51.531Z,11.33
2018-09-04T00:13:20.409Z,11.13
2018-09-04T00:15:48.901Z,10.67
2018-09-04T00:18:17.465Z,6.70
2018-09-04T00:20:45.941Z,12.13
2018-09-04T00:23:14.508Z,16.00
2018-09-04T00:25:43.002Z,10.87
2018-09-04T00:28:11.471Z,8.23
2018-09-04T00:30:40.013Z,12.57
2018-09-04T00:33:08.554Z,14.43
2018-09-04T00:35:37.108Z,9.77
2018-09-04T00:38:05.615Z,13.23
2018-09-04T00:40:34.078Z,10.90
2018-09-04T00:43:02.575Z,13.57
2018-09-04T00:45:31.087Z,13.40
2018-09-04T00:47:59.599Z,14.47
2018-09-04T00:50:28.092Z,16.03
2018-09-04T00:52:56.593Z,10.53
2018-09-04T00:55:25.811Z,13.60
2018-09-04T00:57:54.330Z,16.33
2018-09-04T01:00:25.165Z,15.87
2018-09-04T01:02:54.418Z,12.83
2018-09-04T01:05:22.894Z,9.67
2018-09-04T01:07:51.518Z,15.50
2018-09-04T01:10:20.269Z,16.33
2018-09-04T01:12:49.781Z,7.90
2018-09-04T01:15:18.266Z,16.73
2018-09-04T01:17:46.906Z,10.33
2018-09-04T01:20:15.641Z,8.23
2018-09-04T01:22:44.198Z,11.47
2018-09-04T01:25:12.629Z,10.73
2018-09-04T01:27:41.193Z,12.63
2018-09-04T01:30:09.723Z,9.50
2018-09-04T01:32:38.281Z,12.70
2018-09-04T01:35:06.748Z,10.03
2018-09-04T01:37:35.235Z,14.57
2018-09-04T01:40:03.734Z,9.63
2018-09-04T01:42:32.237Z,8.70
2018-09-04T01:45:00.770Z,5.97
2018-09-04T01:47:29.263Z,17.10
2018-09-04T01:49:57.833Z,15.50
2018-09-04T01:52:26.310Z,10.80
2018-09-04T01:54:54.957Z,16.50
2018-09-04T01:57:24.217Z,11.13
2018-09-04T01:59:52.700Z,9.60
2018-09-04T02:02:21.142Z,14.40
2018-09-04T02:04:49.679Z,12.50
2018-09-04T02:07:18.267Z,12.77
2018-09-04T02:09:46.757Z,11.50
2018-09-04T02:12:15.229Z,14.10
2018-09-04T02:14:43.763Z,15.30
2018-09-04T02:17:12.278Z,11.13
2018-09-04T02:19:40.806Z,12.77
2018-09-04T02:22:09.326Z,9.40
2018-09-04T02:24:37.797Z,15.37
2018-09-04T02:27:12.205Z,22.10
2018-09-04T02:29:41.356Z,20.37
2018-09-04T02:32:09.848Z,21.77
2018-09-04T02:34:38.369Z,13.10
2018-09-04T02:37:06.934Z,19.83
2018-09-04T02:39:35.423Z,18.43
2018-09-04T02:42:03.963Z,10.60
2018-09-04T02:44:32.476Z,14.13
2018-09-04T02:47:01.022Z,14.27
2018-09-04T02:49:29.527Z,10.00
2018-09-04T02:51:58.021Z,16.30
2018-09-04T02:54:26.518Z,13.60
2018-09-04T02:56:55.041Z,21.83
2018-09-04T02:59:23.505Z,14.90
2018-09-04T03:01:52.080Z,14.70
2018-09-04T03:04:20.628Z,15.63
2018-09-04T03:06:49.138Z,13.13
2018-09-04T03:09:17.651Z,15.77
2018-09-04T03:11:46.105Z,15.40
2018-09-04T03:14:15.312Z,9.10
2018-09-04T03:16:43.795Z,14.43
2018-09-04T03:19:12.269Z,14.03
2018-09-04T03:21:40.773Z,17.90
2018-09-04T03:24:09.511Z,13.80
2018-09-04T03:26:38.220Z,21.90
2018-09-04T03:29:06.644Z,12.53
2018-09-04T03:31:35.150Z,16.90
2018-09-04T03:34:03.618Z,16.37
2018-09-04T03:36:32.191Z,15.50
2018-09-04T03:39:00.690Z,16.70
2018-09-04T03:41:29.221Z,19.00
2018-09-04T03:43:57.746Z,24.63
2018-09-04T03:46:26.233Z,19.43
2018-09-04T03:48:54.786Z,15.40
2018-09-04T03:51:23.322Z,19.40
2018-09-04T03:53:51.814Z,17.90
2018-09-04T03:56:20.263Z,22.07
2018-09-04T03:58:48.774Z,19.70
2018-09-04T04:01:17.292Z,21.07
2018-09-04T04:03:45.823Z,17.57
2018-09-04T04:06:14.304Z,16.00
2018-09-04T04:08:42.826Z,11.43
2018-09-04T04:11:11.264Z,13.70
2018-09-04T04:13:39.772Z,31.07
2018-09-04T04:16:08.297Z,20.50
2018-09-04T04:18:36.768Z,17.03
2018-09-04T04:21:05.352Z,12.40
2018-09-04T04:23:33.853Z,13.80
2018-09-04T04:26:03.330Z,10.13
2018-09-04T04:28:31.784Z,15.73
2018-09-04T04:31:00.344Z,13.73
2018-09-04T04:33:28.841Z,9.03
2018-09-04T04:35:58.418Z,9.73
2018-09-04T04:38:27.011Z,14.13
2018-09-04T04:40:55.535Z,15.60
2018-09-04T04:43:24.127Z,13.27
2018-09-04T04:45:52.729Z,17.20
2018-09-04T04:48:21.309Z,16.37
2018-09-04T04:50:49.797Z,12.07
2018-09-04T04:53:18.253Z,16.93
2018-09-04T04:55:46.779Z,14.60
2018-09-04T04:58:15.237Z,15.23
2018-09-04T05:00:43.711Z,13.30
2018-09-04T05:03:12.226Z,16.00
2018-09-04T05:05:41.709Z,11.13
2018-09-04T05:08:10.209Z,14.03
2018-09-04T05:10:38.763Z,10.70
2018-09-04T05:13:07.240Z,17.53
2018-09-04T05:15:35.731Z,20.23
2018-09-04T05:18:06.373Z,11.87
2018-09-04T05:20:34.980Z,11.30
2018-09-04T05:23:03.490Z,17.63
2018-09-04T05:25:31.957Z,13.33
2018-09-04T05:28:00.459Z,14.03
2018-09-04T05:30:28.987Z,14.00
2018-09-04T05:34:02.331Z,11.17
2018-09-04T05:36:30.843Z,17.00
2018-09-04T05:38:59.374Z,13.27
2018-09-04T05:41:27.898Z,18.30
2018-09-04T05:43:58.316Z,21.63
2018-09-04T05:46:32.284Z,19.60
2018-09-04T05:49:01.335Z,10.67
2018-09-04T05:51:29.798Z,21.40
2018-09-04T05:53:58.465Z,13.23
2018-09-04T05:56:26.996Z,11.67
2018-09-04T05:58:55.477Z,14.97
2018-09-04T06:01:24.086Z,12.50
2018-09-04T06:03:53.141Z,19.37
2018-09-04T06:06:22.401Z,12.20
2018-09-04T06:08:50.923Z,14.03
2018-09-04T06:11:19.437Z,12.00
2018-09-04T06:13:48.197Z,12.80
2018-09-04T06:16:16.804Z,19.30
2018-09-04T06:18:45.250Z,15.70
2018-09-04T06:21:13.746Z,11.50
2018-09-04T06:23:42.275Z,18.03
2018-09-04T06:26:10.784Z,12.87
2018-09-04T06:28:39.267Z,20.10
2018-09-04T06:31:07.854Z,13.47
2018-09-04T06:33:36.689Z,8.70
2018-09-04T06:36:12.780Z,14.40
2018-09-04T06:38:41.317Z,19.43
2018-09-04T06:41:09.882Z,6.80
2018-09-04T06:43:38.404Z,9.97
2018-09-04T06:46:06.972Z,10.97
2018-09-04T06:48:35.967Z,10.37
2018-09-04T06:51:04.484Z,9.20
2018-09-04T06:53:33.001Z,11.00
2018-09-04T06:56:01.470Z,11.60
2018-09-04T06:58:30.009Z,10.10
2018-09-04T07:00:58.582Z,6.53
2018-09-04T07:03:27.054Z,8.73
2018-09-04T07:05:55.606Z,7.03
2018-09-04T07:08:25.563Z,11.93
2018-09-04T07:10:54.101Z,7.13
2018-09-04T07:13:22.735Z,8.20
2018-09-04T07:15:51.240Z,10.60
2018-09-04T07:18:19.695Z,9.10
2018-09-04T07:20:48.206Z,7.50
2018-09-04T07:23:16.803Z,13.53
2018-09-04T07:25:45.279Z,6.73
2018-09-04T07:28:13.698Z,8.77
2018-09-04T07:30:42.213Z,10.40
2018-09-04T07:33:10.808Z,11.93
2018-09-04T07:35:39.591Z,6.73
2018-09-04T07:38:08.059Z,13.27
2018-09-04T07:40:36.534Z,8.63
2018-09-04T07:43:05.185Z,12.27
2018-09-04T07:45:33.749Z,11.20
2018-09-04T07:48:02.269Z,8.10
2018-09-04T07:50:30.721Z,7.63
2018-09-04T07:52:59.216Z,9.93
2018-09-04T07:55:27.689Z,9.87
2018-09-04T07:57:56.235Z,17.17
2018-09-04T08:00:24.672Z,7.93
2018-09-04T08:02:53.153Z,8.13
2018-09-04T08:05:21.684Z,7.73
2018-09-04T08:07:50.271Z,7.93
2018-09-04T08:10:18.779Z,6.00
2018-09-04T08:12:47.323Z,5.50
2018-09-04T08:15:15.862Z,8.07
2018-09-04T08:17:44.450Z,5.00
2018-09-04T08:20:12.945Z,9.37
2018-09-04T08:22:41.418Z,4.67
2018-09-04T08:25:09.915Z,3.80
2018-09-04T08:27:38.483Z,5.57
2018-09-04T08:30:07.121Z,5.80
2018-09-04T08:32:35.641Z,8.50
2018-09-04T08:35:04.141Z,6.13
2018-09-04T08:37:32.654Z,8.80
2018-09-04T08:40:01.239Z,13.43
2018-09-04T08:42:29.730Z,11.90
2018-09-04T08:44:58.244Z,5.90
2018-09-04T08:47:27.059Z,6.17
2018-09-04T08:49:55.522Z,6.07
2018-09-04T08:52:23.994Z,4.93
2018-09-04T08:54:52.544Z,5.47
2018-09-04T08:57:21.082Z,7.67
2018-09-04T08:59:49.514Z,6.33
2018-09-04T09:02:18.048Z,8.00
2018-09-04T09:04:46.561Z,3.67
2018-09-04T09:07:15.054Z,4.30
2018-09-04T09:09:43.596Z,3.70
2018-09-04T09:12:12.307Z,5.90
2018-09-04T09:14:40.838Z,3.57
2018-09-04T09:17:09.390Z,4.07
2018-09-04T09:19:37.837Z,2.90
2018-09-04T09:22:06.342Z,4.10
2018-09-04T09:24:34.838Z,3.20
2018-09-04T09:27:11.705Z,5.37
2018-09-04T09:29:40.370Z,2.67
2018-09-04T09:32:08.855Z,3.40
2018-09-04T09:34:37.368Z,6.30
2018-09-04T09:37:05.976Z,6.00
2018-09-04T09:39:34.431Z,3.07
2018-09-04T09:42:02.991Z,5.30
2018-09-04T09:44:31.522Z,5.60
2018-09-04T09:47:02.589Z,3.37
2018-09-04T09:49:32.487Z,3.30
2018-09-04T09:52:01.018Z,4.00
2018-09-04T09:54:29.660Z,3.63
2018-09-04T09:56:58.731Z,4.50
2018-09-04T09:59:27.274Z,4.37
2018-09-04T10:02:01.075Z,4.63
2018-09-04T10:04:29.602Z,5.70
2018-09-04T10:06:58.124Z,7.77
2018-09-04T10:09:26.742Z,8.37
2018-09-04T10:11:55.437Z,4.30
2018-09-04T10:14:24.086Z,7.53
2018-09-04T10:16:52.970Z,3.93
2018-09-04T10:19:21.472Z,5.87
2018-09-04T10:21:49.953Z,5.73
2018-09-04T10:24:19.065Z,6.97
2018-09-04T10:26:47.617Z,5.00
2018-09-04T10:29:16.077Z,4.40
2018-09-04T10:31:44.580Z,3.70
2018-09-04T10:34:15.153Z,5.80
2018-09-04T10:36:44.670Z,7.40
2018-09-04T10:39:18.424Z,5.93
2018-09-04T10:41:47.000Z,8.00
2018-09-04T10:44:15.513Z,6.47
2018-09-04T10:46:44.054Z,4.93
2018-09-04T10:49:12.519Z,6.33
2018-09-04T10:51:42.156Z,4.40
2018-09-04T10:54:14.592Z,3.53
2018-09-04T10:56:43.327Z,5.93
2018-09-04T10:59:12.090Z,5.90
2018-09-04T11:01:40.593Z,4.20
2018-09-04T11:04:09.153Z,5.13
2018-09-04T11:06:38.074Z,7.00
2018-09-04T11:09:14.786Z,4.67
2018-09-04T11:11:43.268Z,5.50
2018-09-04T11:14:11.778Z,9.47
2018-09-04T11:16:40.294Z,4.97
2018-09-04T11:19:08.897Z,6.40
2018-09-04T11:21:37.459Z,4.97
2018-09-04T11:24:06.251Z,6.97
2018-09-04T11:26:34.766Z,9.63
2018-09-04T11:29:05.656Z,5.50
2018-09-04T11:31:34.230Z,7.20
2018-09-04T11:34:03.160Z,7.50
2018-09-04T11:36:31.703Z,5.23
2018-09-04T11:39:00.258Z,6.30
2018-09-04T11:41:28.711Z,6.03
2018-09-04T11:43:57.276Z,6.60
2018-09-04T11:46:25.773Z,6.90
2018-09-04T11:48:54.567Z,10.03
2018-09-04T11:51:23.075Z,6.03
2018-09-04T11:53:51.540Z,6.77
2018-09-04T11:56:20.346Z,6.90
2018-09-04T11:58:49.274Z,7.53
2018-09-04T12:01:19.989Z,6.00
2018-09-04T12:03:48.439Z,11.43
2018-09-04T12:06:16.998Z,8.50
2018-09-04T12:08:45.573Z,8.57
2018-09-04T12:11:14.054Z,6.17
2018-09-04T12:13:42.798Z,11.70
2018-09-04T12:16:11.451Z,6.40
2018-09-04T12:18:40.142Z,13.90
2018-09-04T12:21:10.076Z,6.07
2018-09-04T12:23:39.063Z,6.27
2018-09-04T12:26:09.171Z,8.50
2018-09-04T12:28:37.723Z,6.07
2018-09-04T12:31:07.000Z,7.40
2018-09-04T12:33:35.493Z,7.40
2018-09-04T12:36:07.866Z,11.83
2018-09-04T12:38:39.257Z,6.37
2018-09-04T12:41:13.103Z,8.00
2018-09-04T12:43:41.684Z,6.87
2018-09-04T12:46:10.268Z,11.73
2018-09-04T12:48:39.013Z,7.13
2018-09-04T12:51:07.468Z,6.40
2018-09-04T12:53:36.191Z,9.17
2018-09-04T12:56:04.715Z,6.57
2018-09-04T12:58:33.222Z,5.97
2018-09-04T13:01:01.694Z,7.87
2018-09-04T13:03:30.175Z,5.53
2018-09-04T13:05:58.862Z,9.13
2018-09-04T13:08:29.592Z,7.07
2018-09-04T13:10:58.143Z,7.43
2018-09-04T13:13:26.936Z,7.50
2018-09-04T13:15:57.262Z,5.60
2018-09-04T13:18:26.853Z,8.40
2018-09-04T13:21:02.093Z,7.63
2018-09-04T13:23:31.638Z,6.87
2018-09-04T13:26:00.178Z,7.17
2018-09-04T13:28:29.288Z,8.73
2018-09-04T13:30:58.033Z,6.17
2018-09-04T13:33:26.537Z,11.40
2018-09-04T13:35:55.050Z,7.53
2018-09-04T13:38:23.720Z,6.00
2018-09-04T13:40:57.399Z,7.00
2018-09-04T13:43:25.896Z,7.07
2018-09-04T13:45:54.610Z,7.63
2018-09-04T13:48:28.847Z,7.57
2018-09-04T13:50:58.052Z,7.33
2018-09-04T13:53:27.390Z,5.40
2018-09-04T13:55:56.784Z,7.87
2018-09-04T13:58:25.572Z,7.67
2018-09-04T14:00:54.325Z,6.10
2018-09-04T14:03:22.911Z,7.17
2018-09-04T14:05:52.220Z,7.60
2018-09-04T14:08:20.848Z,7.40
2018-09-04T14:10:49.525Z,10.73
2018-09-04T14:13:18.088Z,8.30
2018-09-04T14:15:46.678Z,9.03
2018-09-04T14:18:16.716Z,10.00
2018-09-04T14:20:45.303Z,11.23
2018-09-04T14:23:13.833Z,7.83
2018-09-04T14:25:42.758Z,8.27
2018-09-04T14:28:11.374Z,10.17
2018-09-04T14:30:39.926Z,8.00
2018-09-04T14:33:08.469Z,7.30
2018-09-04T14:35:37.030Z,9.83
2018-09-04T14:38:05.561Z,8.87
2018-09-04T14:40:34.066Z,9.97
2018-09-04T14:43:02.510Z,9.70
2018-09-04T14:45:31.064Z,8.03
2018-09-04T14:47:59.763Z,9.33
2018-09-04T14:50:28.267Z,6.73
2018-09-04T14:52:56.791Z,13.30
2018-09-04T14:55:25.518Z,10.13
2018-09-04T14:57:53.996Z,9.43
2018-09-04T15:00:23.210Z,5.37
2018-09-04T15:02:52.009Z,8.23
2018-09-04T15:05:21.603Z,7.30
2018-09-04T15:07:50.112Z,8.83
2018-09-04T15:10:18.670Z,8.70
2018-09-04T15:12:47.302Z,8.17
2018-09-04T15:15:15.839Z,8.57
2018-09-04T15:17:44.312Z,7.53
2018-09-04T15:20:12.873Z,5.93
2018-09-04T15:22:41.354Z,7.53
2018-09-04T15:25:09.909Z,8.00
2018-09-04T15:27:38.398Z,9.10
2018-09-04T15:30:07.186Z,7.67
2018-09-04T15:32:35.927Z,8.10
2018-09-04T15:35:04.526Z,9.17
2018-09-04T15:37:33.216Z,6.63
2018-09-04T15:40:01.758Z,9.80
2018-09-04T15:42:30.440Z,8.40
2018-09-04T15:44:58.937Z,10.30
2018-09-04T15:47:27.464Z,6.37
2018-09-04T15:49:56.096Z,11.00
2018-09-04T15:52:24.681Z,7.70
2018-09-04T15:54:53.353Z,8.60
2018-09-04T15:57:21.959Z,6.47
2018-09-04T15:59:50.755Z,9.33
2018-09-04T16:02:19.222Z,7.40
2018-09-04T16:04:47.774Z,6.10
2018-09-04T16:07:16.419Z,8.20
2018-09-04T16:09:45.045Z,9.10
2018-09-04T16:12:13.635Z,8.83
2018-09-04T16:14:42.124Z,8.40
2018-09-04T16:17:10.674Z,15.97
2018-09-04T16:19:39.216Z,6.77
2018-09-04T16:22:07.740Z,8.23
2018-09-04T16:24:36.317Z,7.17
2018-09-04T16:27:12.517Z,8.30
2018-09-04T16:29:41.062Z,9.10
2018-09-04T16:32:09.668Z,6.40
2018-09-04T16:34:38.294Z,7.40
2018-09-04T16:37:06.801Z,7.20
2018-09-04T16:39:35.371Z,9.90
2018-09-04T16:42:04.083Z,7.60
2018-09-04T16:44:32.573Z,6.33
2018-09-04T16:47:01.241Z,10.87
2018-09-04T16:49:29.746Z,8.50
2018-09-04T16:51:59.384Z,7.53
2018-09-04T16:54:28.454Z,6.73
2018-09-04T16:56:57.203Z,7.80
2018-09-04T16:59:25.663Z,7.70
2018-09-04T17:01:54.469Z,5.27
2018-09-04T17:04:23.054Z,6.70
2018-09-04T17:06:51.538Z,8.07
2018-09-04T17:09:20.553Z,6.80
2018-09-04T17:11:49.184Z,5.37
2018-09-04T17:14:17.710Z,8.23
2018-09-04T17:16:46.350Z,9.40
2018-09-04T17:19:14.966Z,8.47
2018-09-04T17:21:43.503Z,11.83
2018-09-04T17:24:12.022Z,8.47
2018-09-04T17:26:40.489Z,8.80
2018-09-04T17:29:09.623Z,7.40
2018-09-04T17:31:39.202Z,8.90
2018-09-04T17:34:07.765Z,7.67
2018-09-04T17:36:36.465Z,6.00
2018-09-04T17:39:06.751Z,7.00
2018-09-04T17:41:35.349Z,8.60
2018-09-04T17:44:03.935Z,8.90
2018-09-04T17:46:33.429Z,9.93
2018-09-04T17:49:02.004Z,8.87
2018-09-04T17:51:30.705Z,6.00
2018-09-04T17:53:59.232Z,6.60
2018-09-04T17:56:27.752Z,9.60
2018-09-04T17:58:59.221Z,7.90
2018-09-04T18:01:27.777Z,7.23
2018-09-04T18:03:56.310Z,7.43
2018-09-04T18:06:24.872Z,7.70
2018-09-04T18:08:53.757Z,8.43
2018-09-04T18:11:22.392Z,8.27
2018-09-04T18:13:51.614Z,6.80
2018-09-04T18:16:20.163Z,6.53
2018-09-04T18:18:48.649Z,7.47
2018-09-04T18:21:17.312Z,7.47
2018-09-04T18:23:45.874Z,11.73
2018-09-04T18:26:14.372Z,7.37
2018-09-04T18:28:42.885Z,7.00
2018-09-04T18:31:11.570Z,5.57
2018-09-04T18:33:40.080Z,7.20
2018-09-04T18:36:14.006Z,9.57
2018-09-04T18:38:42.666Z,8.57
2018-09-04T18:41:11.234Z,5.80
2018-09-04T18:43:39.758Z,7.10
2018-09-04T18:46:08.309Z,10.70
2018-09-04T18:48:36.899Z,7.50
2018-09-04T18:51:05.529Z,6.07
2018-09-04T18:53:34.178Z,7.83
2018-09-04T18:56:02.735Z,7.40
2018-09-04T18:58:31.434Z,6.90
2018-09-04T19:00:59.971Z,6.20
2018-09-04T19:03:28.497Z,9.57
2018-09-04T19:05:57.072Z,8.77
2018-09-04T19:08:26.158Z,7.87
2018-09-04T19:10:54.815Z,10.63
2018-09-04T19:13:23.269Z,8.07
2018-09-04T19:15:51.796Z,6.87
2018-09-04T19:18:20.362Z,12.37
2018-09-04T19:20:48.903Z,8.90
2018-09-04T19:23:18.031Z,9.03
2018-09-04T19:25:47.441Z,8.10
2018-09-04T19:28:15.983Z,9.90
2018-09-04T19:30:44.418Z,8.43
2018-09-04T19:33:13.005Z,10.00
2018-09-04T19:35:41.566Z,8.10
2018-09-04T19:38:10.808Z,9.30
2018-09-04T19:40:39.406Z,10.23
2018-09-04T19:43:07.922Z,7.53
2018-09-04T19:45:36.845Z,9.00
2018-09-04T19:48:05.544Z,9.27
2018-09-04T19:50:34.171Z,10.27
2018-09-04T19:53:02.950Z,7.97
2018-09-04T19:55:31.479Z,8.23
2018-09-04T19:58:00.009Z,10.60
2018-09-04T20:00:28.527Z,8.47
2018-09-04T20:02:57.106Z,8.17
2018-09-04T20:05:25.684Z,8.07
2018-09-04T20:07:54.194Z,9.13
2018-09-04T20:10:22.716Z,8.60
2018-09-04T20:12:51.263Z,9.67
2018-09-04T20:15:19.777Z,11.93
2018-09-04T20:17:48.376Z,8.07
2018-09-04T20:20:16.916Z,8.40
2018-09-04T20:22:45.462Z,12.00
2018-09-04T20:25:14.017Z,11.70
2018-09-04T20:27:42.481Z,10.03
2018-09-04T20:30:11.038Z,10.87
2018-09-04T20:32:39.537Z,12.07
2018-09-04T20:35:08.130Z,6.47
2018-09-04T20:37:36.709Z,9.03
2018-09-04T20:40:05.362Z,12.67
2018-09-04T20:42:35.023Z,12.40
2018-09-04T20:45:04.830Z,9.30
2018-09-04T20:47:33.368Z,12.60
2018-09-04T20:50:01.936Z,12.43
2018-09-04T20:52:30.472Z,5.93
2018-09-04T20:54:59.054Z,10.63
2018-09-04T20:57:39.903Z,12.53
2018-09-04T21:00:22.663Z,12.60
2018-09-04T21:03:02.293Z,8.83
2018-09-04T21:05:41.813Z,10.40
2018-09-04T21:08:17.107Z,9.60
2018-09-04T21:10:46.323Z,8.03
2018-09-04T21:13:15.285Z,8.73
2018-09-04T21:15:43.786Z,10.23
2018-09-04T21:18:12.931Z,10.53
2018-09-04T21:20:41.402Z,9.40
2018-09-04T21:23:09.950Z,12.07
2018-09-04T21:25:38.549Z,10.83
2018-09-04T21:28:13.574Z,13.30
2018-09-04T21:30:42.103Z,10.53
2018-09-04T21:33:10.769Z,13.30
2018-09-04T21:35:39.380Z,9.73
2018-09-04T21:38:07.943Z,10.93
2018-09-04T21:40:36.502Z,8.43
2018-09-04T21:43:05.188Z,11.63
2018-09-04T21:45:33.649Z,9.67
2018-09-04T21:48:02.148Z,10.50
2018-09-04T21:50:30.639Z,6.80
2018-09-04T21:52:59.169Z,11.57
2018-09-04T21:55:27.707Z,7.40
2018-09-04T21:57:56.223Z,10.60
2018-09-04T22:00:26.361Z,13.90
2018-09-04T22:02:56.058Z,9.67
2018-09-04T22:05:25.197Z,9.73
2018-09-04T22:07:54.505Z,8.80
2018-09-04T22:10:23.086Z,7.13
2018-09-04T22:12:51.625Z,9.90
2018-09-04T22:15:20.129Z,6.83
2018-09-04T22:17:48.801Z,8.00
2018-09-04T22:20:17.242Z,10.10
2018-09-04T22:22:45.676Z,9.47
2018-09-04T22:25:14.206Z,8.17
2018-09-04T22:27:42.716Z,12.83
2018-09-04T22:30:11.286Z,12.27
2018-09-04T22:32:40.029Z,11.50
2018-09-04T22:35:08.544Z,12.97
2018-09-04T22:37:37.079Z,8.70
2018-09-04T22:40:06.042Z,13.00
2018-09-04T22:42:34.563Z,10.63
2018-09-04T22:45:03.717Z,14.53
2018-09-04T22:47:33.029Z,10.47
2018-09-04T22:50:06.876Z,9.10
2018-09-04T22:52:35.322Z,8.40
2018-09-04T22:55:06.712Z,9.33
2018-09-04T22:57:35.293Z,10.00
2018-09-04T23:00:05.291Z,7.70
2018-09-04T23:02:33.930Z,7.27
2018-09-04T23:05:02.887Z,7.67
2018-09-04T23:07:31.426Z,11.73
2018-09-04T23:09:59.956Z,12.23
2018-09-04T23:12:28.462Z,10.83
2018-09-04T23:14:57.018Z,11.73
2018-09-04T23:17:25.521Z,12.20
2018-09-04T23:19:53.985Z,15.30
2018-09-04T23:22:22.456Z,11.60
2018-09-04T23:24:51.019Z,10.63
2018-09-04T23:27:19.530Z,10.63
2018-09-04T23:29:48.078Z,10.87
2018-09-04T23:32:16.565Z,11.20
2018-09-04T23:34:45.042Z,12.23
2018-09-04T23:37:13.551Z,9.50
2018-09-04T23:39:42.087Z,10.97
2018-09-04T23:42:10.542Z,8.43
2018-09-04T23:44:39.024Z,10.80
2018-09-04T23:47:07.481Z,14.83
2018-09-04T23:49:35.991Z,14.70
2018-09-04T23:52:04.528Z,11.77
2018-09-04T23:54:33.063Z,8.10
2018-09-04T23:57:01.603Z,13.30
2018-09-04T23:59:30.140Z,13.50
